METAR Reports

Area Airport Weather Conditions

KBDL - Windsor Locks, Connecticut, USA
Distance from station: NE 45mi, 72km
Updated: 8:51PM EST, January 17, 2019
Overcast
Overcast
 Wind from SSE
Wind: SSE 5 mph , 7 km/h
Temperature: 25°F , -4°C
Wind Chill: 19°F , -7°C
Dew Point: -0°F , -18°C
Humidity: 33%
Barometer: 30.30 inHg , 1026.1 hPa
Clouds: Overcast
Visibility: 10 miles , 16 km
Cloud details: Partly cloudy 9500 ft
Overcast 12000 ft
2019/01/18 01:51 KBDL 180151Z 16004KT 10SM SCT095 OVC120 M04/M18 A3030 RMK AO2 SLP261 T10441178
KDXR - Danbury, Connecticut, USA
Distance from station: SSW 15mi, 24km
Updated: 8:53PM EST, January 17, 2019
Overcast
Overcast
 Wind from S
Wind: S 5 mph , 7 km/h
Temperature: 27°F , -3°C
Wind Chill: 21°F , -6°C
Dew Point: 7°F , -14°C
Humidity: 43%
Barometer: 30.28 inHg , 1025.4 hPa
Clouds: Overcast
Visibility: 10 miles , 16 km
Cloud details: Overcast 11000 ft
2019/01/18 01:53 KDXR 180153Z 17004KT 10SM OVC110 M03/M14 A3028 RMK AO2 SLP261 T10331139
 
KOXC - Oxford/Waterbury, Connecticut, USA
Distance from station: ESE 16mi, 26km
Updated: 8:51PM EST, January 17, 2019
Mostly cloudy
Mostly cloudy
 Wind from S
Wind: S 3 mph , 6 km/h
Temperature: 25°F , -4°C
Dew Point: 12°F , -11°C
Humidity: 59%
Barometer: 30.27 inHg , 1025.1 hPa
Clouds: Mostly cloudy
Visibility: 10 miles , 16 km
Cloud details: Mostly cloudy 11000 ft
2019/01/18 01:51 KOXC 180151Z 17003KT 10SM BKN110 M04/M11 A3027 RMK AO2 SLP275 T10441111
KPOU - Poughkeepsie, New York, USA
Distance from station: W 25mi, 40km
Updated: 8:53PM EST, January 17, 2019
Partly cloudy
Partly cloudy
 Wind from calm
Wind: Calm
Temperature: 25°F , -4°C
Dew Point: 9°F , -13°C
Humidity: 50%
Barometer: 30.27 inHg , 1025.1 hPa
Clouds: Partly cloudy
Visibility: 10 miles , 16 km
Cloud details: Few Clouds 9500 ft
Partly cloudy 12000 ft
2019/01/18 01:53 KPOU 180153Z 00000KT 10SM FEW095 SCT120 M04/M13 A3027 RMK AO2 SLP248 T10391128
 
KMMK - Meriden, Connecticut, USA
Distance from station: E 30mi, 48km
Updated: 8:53PM EST, January 17, 2019
Mostly cloudy
Mostly cloudy
 Wind from calm
Wind: Calm
Temperature: 25°F , -4°C
Dew Point: 12°F , -11°C
Humidity: 59%
Barometer: 30.30 inHg , 1026.1 hPa
Clouds: Mostly cloudy
Visibility: 10 miles , 16 km
Cloud details: Mostly cloudy 11000 ft
2019/01/18 01:53 KMMK 180153Z AUTO 00000KT 10SM BKN110 M04/M11 A3030 RMK AO2 SLP264 T10391111
KBDR - Bridgeport, Connecticut, USA
Distance from station: SSE 32mi, 51km
Updated: 8:52PM EST, January 17, 2019
Clear
Clear
 Wind from S
Wind: S 3 mph , 6 km/h
Temperature: 30°F , -1°C
Dew Point: 10°F , -12°C
Humidity: 43%
Barometer: 30.31 inHg , 1026.4 hPa
Clouds: Clear
Visibility: 10 miles , 16 km
2019/01/18 01:52 KBDR 180152Z 19003KT 10SM CLR M01/M12 A3031 RMK AO2 SLP264 T10111117
 
KHVN - New Haven/Tweed, Connecticut, USA
Distance from station: SE 35mi, 57km
Updated: 8:53PM EST, January 17, 2019
Mostly cloudy
Mostly cloudy
 Wind from S
Wind: S 5 mph , 7 km/h
Temperature: 30°F , -1°C
Wind Chill: 25°F , -4°C
Dew Point: 12°F , -11°C
Humidity: 47%
Barometer: 30.31 inHg , 1026.4 hPa
Clouds: Mostly cloudy
Visibility: 10 miles , 16 km
Cloud details: Mostly cloudy 10000 ft
2019/01/18 01:53 KHVN 180153Z 17004KT 10SM BKN100 M01/M11 A3031 RMK AO2 SLP262 T10111106
KSWF - Newburgh/Stewart, New York, USA
Distance from station: W 35mi, 57km
Updated: 8:45PM EST, January 17, 2019
Mostly cloudy
Mostly cloudy
 Wind from calm
Wind: Calm
Temperature: 25°F , -4°C
Dew Point: 10°F , -12°C
Humidity: 54%
Barometer: 30.26 inHg , 1024.7 hPa
Clouds: Mostly cloudy
Visibility: 10 miles , 16 km
Cloud details: Mostly cloudy 12000 ft
2019/01/18 01:45 KSWF 180145Z 00000KT 10SM BKN120 M04/M12 A3026
 
KHPN - White Plains, New York, USA
Distance from station: SSW 38mi, 62km
Updated: 8:56PM EST, January 17, 2019
Mostly cloudy
Mostly cloudy
 Wind from E
Wind: E 3 mph , 6 km/h
Temperature: 27°F , -3°C
Dew Point: 9°F , -13°C
Humidity: 46%
Barometer: 30.26 inHg , 1024.7 hPa
Clouds: Mostly cloudy
Visibility: 10 miles , 16 km
Cloud details: Mostly cloudy 10000 ft
2019/01/18 01:56 KHPN 180156Z 09003KT 10SM BKN100 M03/M13 A3026 RMK AO2 SLP258 T10281133
KHFD - Hartford/Brainar, Connecticut, USA
Distance from station: ENE 41mi, 65km
Updated: 8:53PM EST, January 17, 2019
Mostly cloudy
Mostly cloudy
 Wind from calm
Wind: Calm
Temperature: 27°F , -3°C
Dew Point: 5°F , -15°C
Humidity: 39%
Barometer: 30.31 inHg , 1026.4 hPa
Clouds: Mostly cloudy
Visibility: 10 miles , 16 km
Cloud details: Mostly cloudy 11000 ft
2019/01/18 01:53 KHFD 180153Z 00000KT 10SM BKN110 M03/M15 A3031 RMK AO2 SLP264 T10331150